This is the latest recevied weather packets stored in our database for station/object SQ9RHX-13. If no packets are shown the sender has not sent any weather packets the latest 10 day(s).
| Time | Temp. | Humidity | Pressure | Rain* | Wind** | Luminosity | Snow |
|---|---|---|---|---|---|---|---|
| 1777752303 | 13.89° C | 54% | 1022.8 hPa | 0 mm | - | 0 W/m² | - |
| 1777752005 | 13.89° C | 55% | 1022.7 hPa | 0 mm | - | 0 W/m² | - |
| 1777751706 | 13.33° C | 56% | 1022.8 hPa | 0 mm | - | 0 W/m² | - |
| 1777751403 | 13.33° C | 56% | 1022.9 hPa | 0 mm | - | 0 W/m² | - |
| 1777751104 | 13.33° C | 57% | 1022.9 hPa | 0 mm | - | 0 W/m² | - |
| 1777750803 | 12.78° C | 58% | 1023 hPa | 0 mm | - | 0 W/m² | - |
| 1777750504 | 12.22° C | 57% | 1022.9 hPa | 0 mm | - | 0 W/m² | - |
| 1777750202 | 12.78° C | 59% | 1023 hPa | 0 mm | - | 0 W/m² | - |
| 1777749903 | 12.78° C | 58% | 1023 hPa | 0 mm | - | 0 W/m² | - |
| 1777749603 | 12.78° C | 57% | 1023 hPa | 0 mm | - | 0 W/m² | - |
| 1777749304 | 13.33° C | 56% | 1023.2 hPa | 0 mm | - | 0 W/m² | - |
| 1777749004 | 13.33° C | 56% | 1023 hPa | 0 mm | - | 0 W/m² | - |
| 1777748703 | 13.89° C | 54% | 1022.9 hPa | 0 mm | - | 0 W/m² | - |
| 1777748405 | 14.44° C | 52% | 1022.8 hPa | 0 mm | - | 0 W/m² | - |
| 1777748106 | 15° C | 50% | 1022.8 hPa | 0 mm | - | 0 W/m² | - |
| 1777747803 | 15° C | 49% | 1023 hPa | 0 mm | - | 0 W/m² | - |
| 1777747502 | 15.56° C | 47% | 1023 hPa | 0 mm | - | 0 W/m² | - |
| 1777747203 | 16.67° C | 46% | 1022.9 hPa | 0 mm | - | 0 W/m² | - |
| 1777746903 | 17.22° C | 43% | 1022.8 hPa | 0 mm | - | 0 W/m² | - |
| 1777746602 | 18.33° C | 40% | 1022.6 hPa | 0 mm | - | 0 W/m² | - |
| 1777746303 | 19.44° C | 38% | 1022.8 hPa | 0 mm | - | 1 W/m² | - |
| 1777746002 | 20° C | 36% | 1022.8 hPa | 0 mm | - | 1 W/m² | - |
| 1777745704 | 20° C | 34% | 1022.6 hPa | 0 mm | - | 2 W/m² | - |
| 1777745404 | 20.56° C | 33% | 1022.5 hPa | 0 mm | - | 4 W/m² | - |
| 1777745103 | 21.11° C | 32% | 1022.6 hPa | 0 mm | - | 5 W/m² | - |
* Rain latest hour (hover to see other rain measurements)
** Current wind speed in m/s (hover to see current wind gust speed)